Perseverance — WDD5594 — position and weather

sailwx.info

Track history (hours):
 
Tides and Currents Weather Stations Pressure Air Temp Water Temp Dewpoint Dewpoint Depression Visibility Wind Speed Wind Dir Waves Ship Positions

Perseverance

Owner: Cooper, Mark E, Toledo, OR. More information available from US FCC via Universal Licensing System and Coast Guard Vessel Documentation Center.

Last reported at 2017-May-30 01:30 UTC. Time now 2017-May-30 01:29 UTC.
Position N 45°36' W 124°18'.

Type: Fishing. MMSI: 367618000.

Date/timePositionNaut miles runAvg speedWind from/ knotsBaromVisibWave heightAir tempDewpointWater temp
2017-May-30 01:30N 45°36' W 124°18'5 9.4
2017-May-30 01:00N 45°41' W 124°19'5 9.5
2017-May-30 00:31N 45°46' W 124°19'5 9.3
2017-May-30 00:00N 45°50' W 124°19'5 9.0
2017-May-29 23:30N 45°55' W 124°19'5 9.4
2017-May-29 23:00N 45°60' W 124°19'5 9.5
2017-May-29 22:28N 46°04' W 124°22'4 9.6
2017-May-29 22:00N 46°08' W 124°23'5 9.1
2017-May-29 21:30N 46°13' W 124°25'4 7.8
2017-May-29 21:00N 46°17' W 124°26'4 8.6
2017-May-29 20:30N 46°21' W 124°28'5 9.6
2017-May-29 20:00N 46°26' W 124°30'5 9.7
2017-May-29 19:30N 46°30' W 124°32'5 9.5
2017-May-29 19:00N 46°35' W 124°34'5 9.3
2017-May-29 18:30N 46°39' W 124°37'5 9.5
2017-May-29 18:00N 46°43' W 124°39'5 9.4
2017-May-29 17:31N 46°48' W 124°40'5 9.7
2017-May-29 17:00N 46°53' W 124°39'4 7.9
2017-May-29 16:30N 46°57' W 124°39'5 9.0
2017-May-29 16:00N 47°01' W 124°41'16 9.4
2017-May-29 14:19N 47°17' W 124°43'10 2.1
2017-May-29 09:35N 47°25' W 124°51'1 7.7
2017-May-29 09:30N 47°25' W 124°52'5 0.6
2017-May-29 02:11N 47°21' W 124°49'1 2.7
2017-May-29 01:57N 47°21' W 124°49'1 3.0
2017-May-29 01:30N 47°20' W 124°50'7 0.8
2017-May-28 17:39N 47°14' W 124°54'1 3.1
2017-May-28 17:30N 47°14' W 124°55'2 3.6
2017-May-28 16:58N 47°12' W 124°56'2 4.0
2017-May-28 16:25N 47°14' W 124°58'0 0.2
2017-May-28 15:59N 47°14' W 124°58'2 1.1
2017-May-28 13:56N 47°16' W 124°55'0 0.7
2017-May-28 13:29N 47°15' W 124°55'2 3.2
2017-May-28 13:00N 47°14' W 124°54'1 2.9
2017-May-28 12:30N 47°13' W 124°56'2 3.1
2017-May-28 12:00N 47°12' W 124°58'3 4.2
2017-May-28 11:15N 47°14' W 124°54'1 4.4
2017-May-28 11:00N 47°15' W 124°55'2 4.0
2017-May-28 10:29N 47°17' W 124°55'2 4.4
2017-May-28 10:00N 47°18' W 124°58'2 4.6
2017-May-28 09:30N 47°18' W 125°01'2 4.5
2017-May-28 09:00N 47°19' W 125°05'2 4.4
2017-May-28 08:30N 47°20' W 125°08'0 0.2
2017-May-28 08:00N 47°20' W 125°08'1 1.4
2017-May-28 07:30N 47°19' W 125°07'1 2.0
2017-May-28 07:00N 47°19' W 125°06'1 2.0
2017-May-28 06:30N 47°18' W 125°05'1 2.0
2017-May-28 06:00N 47°17' W 125°04'1 2.0
2017-May-28 05:30N 47°16' W 125°03'1 2.0
2017-May-28 05:00N 47°15' W 125°02'1 1.8
2017-May-28 04:30N 47°15' W 125°01'1 2.2
2017-May-28 04:00N 47°15' W 124°59'1 2.3
2017-May-28 03:30N 47°15' W 124°58'1 2.2
2017-May-28 03:00N 47°15' W 124°56'1 2.0
2017-May-28 02:29N 47°14' W 124°55'1 1.9
2017-May-28 02:00N 47°14' W 124°54'1 2.6
2017-May-28 01:30N 47°13' W 124°56'2 3.2
2017-May-28 01:00N 47°13' W 124°58'0 0.2
2017-May-28 00:30N 47°13' W 124°58'0 0.8
2017-May-28 00:00N 47°12' W 124°59'1 1.4
2017-May-27 23:30N 47°12' W 124°59'1 2.0
2017-May-27 23:00N 47°12' W 124°58'2 2.0
2017-May-27 22:10N 47°13' W 124°56'0 2.1
2017-May-27 21:59N 47°13' W 124°55'1 2.1
2017-May-27 21:23N 47°14' W 124°54'1 1.5
2017-May-27 21:00N 47°14' W 124°54'2 3.0
2017-May-27 20:30N 47°13' W 124°56'2 3.2
2017-May-27 20:00N 47°12' W 124°58'2 3.3
2017-May-27 19:30N 47°11' W 124°60'1 1.5
2017-May-27 19:00N 47°11' W 124°59'3 2.4
2017-May-27 17:47N 47°13' W 124°55'1 3.5
2017-May-27 17:30N 47°14' W 124°55'2 3.0
2017-May-27 16:59N 47°14' W 124°57'1 1.3
2017-May-27 16:07N 47°14' W 124°55'0 2.1
2017-May-27 16:00N 47°14' W 124°55'1 2.7
2017-May-27 15:30N 47°13' W 124°57'2 3.2
2017-May-27 15:00N 47°12' W 124°58'1 0.7
2017-May-27 13:45N 47°12' W 124°57'1 5.8
2017-May-27 13:30N 47°13' W 124°55'3 6.0
2017-May-27 13:00N 47°13' W 124°60'2 4.0
2017-May-27 12:30N 47°11' W 124°59'4 7.1
2017-May-27 12:00N 47°08' W 124°60'1 1.6
2017-May-27 11:30N 47°08' W 125°00'1 1.9
2017-May-27 10:59N 47°09' W 125°00'1 2.8
2017-May-27 10:27N 47°08' W 124°59'1 2.8
2017-May-27 09:59N 47°08' W 124°57'1 2.7
2017-May-27 09:30N 47°07' W 124°56'1 2.9
2017-May-27 08:59N 47°05' W 124°55'0 0.6
2017-May-27 08:30N 47°05' W 124°55'2 4.2
2017-May-27 08:00N 47°06' W 124°58'2 4.4
2017-May-27 07:29N 47°08' W 125°00'2 4.4
2017-May-27 07:00N 47°09' W 125°02'2 4.5
2017-May-27 06:30N 47°11' W 125°05'1 1.8
2017-May-27 06:00N 47°10' W 125°05'1 2.7
2017-May-27 05:30N 47°09' W 125°04'2 2.8
2017-May-27 04:57N 47°07' W 125°02'1 2.7
2017-May-27 04:30N 47°07' W 125°01'1 2.5
2017-May-27 04:00N 47°06' W 125°00'1 1.5
2017-May-27 03:30N 47°06' W 124°59'1 2.8
2017-May-27 03:00N 47°07' W 124°59'2 3.7
2017-May-27 02:30N 47°09' W 125°01'3 5.0
2017-May-27 01:59N 47°07' W 124°59'4 8.2
2017-May-27 01:30N 47°03' W 124°60'4 7.5
2017-May-27 01:00N 46°59' W 125°00'4 8.2
2017-May-27 00:30N 46°55' W 124°58'4 7.7
2017-May-27 00:00N 46°52' W 124°55'4 7.6
2017-May-26 23:30N 46°48' W 124°53'2 4.2
2017-May-26 23:00N 46°46' W 124°53'3 6.0
2017-May-26 22:30N 46°49' W 124°54'4 7.0
2017-May-26 22:00N 46°46' W 124°52'4 7.6
2017-May-26 21:30N 46°43' W 124°49'4 8.2
2017-May-26 21:00N 46°40' W 124°44'2 3.2
2017-May-26 20:30N 46°39' W 124°44'4 7.4
2017-May-26 20:00N 46°40' W 124°48'1 2.6
2017-May-26 19:30N 46°40' W 124°50'1 1.1
2017-May-26 19:00N 46°41' W 124°51'1 2.2
2017-May-26 18:31N 46°42' W 124°51'1 2.3
2017-May-26 18:00N 46°43' W 124°52'1 2.2
2017-May-26 17:30N 46°44' W 124°52'1 2.4
2017-May-26 17:00N 46°45' W 124°51'2 3.0
2017-May-26 16:30N 46°46' W 124°52'2 3.4
2017-May-26 15:59N 46°48' W 124°54'2 4.4
2017-May-26 15:30N 46°46' W 124°52'2 4.0
2017-May-26 15:00N 46°48' W 124°53'3 3.0
2017-May-26 14:00N 46°45' W 124°51'3 5.9
2017-May-26 13:30N 46°43' W 124°48'1 3.0
2017-May-26 13:00N 46°41' W 124°48'1 2.8
2017-May-26 12:30N 46°40' W 124°46'1 2.8
2017-May-26 12:00N 46°39' W 124°45'2 3.3
2017-May-26 11:30N 46°40' W 124°47'2 4.5
2017-May-26 11:00N 46°42' W 124°48'1 1.6
2017-May-26 10:30N 46°43' W 124°49'1 2.6
2017-May-26 10:00N 46°42' W 124°47'1 2.5
2017-May-26 09:30N 46°41' W 124°46'1 2.7
2017-May-26 09:00N 46°40' W 124°45'1 2.4
2017-May-26 08:30N 46°39' W 124°43'1 2.3
2017-May-26 08:00N 46°39' W 124°42'1 2.3
2017-May-26 07:30N 46°38' W 124°41'1 2.3
2017-May-26 07:00N 46°37' W 124°40'1 2.4
2017-May-26 06:30N 46°36' W 124°39'0 0.9
2017-May-26 06:00N 46°35' W 124°39'0 0.9
2017-May-26 05:30N 46°36' W 124°39'1 2.4
2017-May-26 05:00N 46°37' W 124°40'1 2.7
2017-May-26 04:30N 46°38' W 124°42'2 3.3
2017-May-26 04:00N 46°39' W 124°44'2 3.1
2017-May-26 03:30N 46°40' W 124°46'2 3.1
2017-May-26 03:00N 46°41' W 124°47'2 3.6
2017-May-26 02:30N 46°42' W 124°48'1 2.9
2017-May-26 02:00N 46°41' W 124°47'3 5.6
2017-May-26 01:30N 46°44' W 124°49'1 1.5
2017-May-26 01:00N 46°44' W 124°50'2 4.6
2017-May-26 00:30N 46°42' W 124°48'3 6.2
2017-May-26 00:00N 46°39' W 124°46'4 7.0
2017-May-25 23:30N 46°38' W 124°41'3 6.6
2017-May-25 23:00N 46°35' W 124°38'3 5.8
2017-May-25 22:30N 46°33' W 124°37'4 8.4
2017-May-25 22:00N 46°29' W 124°34'4 8.2
2017-May-25 21:30N 46°26' W 124°31'4 8.3
2017-May-25 21:00N 46°24' W 124°25'4 8.2
2017-May-25 20:30N 46°22' W 124°20'4 8.4
2017-May-25 20:00N 46°20' W 124°15'4 8.0
2017-May-25 19:31N 46°17' W 124°10'4 8.0
2017-May-25 19:00N 46°15' W 124°05'4 7.1
2017-May-25 18:30N 46°15' W 124°00'4 7.5
2017-May-25 18:01N 46°12' W 123°56'3 6.6
2017-May-25 17:31N 46°11' W 123°52'0 0.1
2017-May-25 17:00N 46°11' W 123°52'0 0.0
2017-May-25 16:30N 46°11' W 123°52'0 0.0
2017-May-25 16:00N 46°11' W 123°52'0 0.0
2017-May-25 15:30N 46°11' W 123°52'0 0.0
2017-May-25 15:00N 46°11' W 123°52'0 0.0
2017-May-25 14:01N 46°11' W 123°52'0 0.0
2017-May-25 13:30N 46°11' W 123°52'0 0.0
2017-May-25 13:00N 46°11' W 123°52'0 0.0
2017-May-25 12:31N 46°11' W 123°52'0 0.0
2017-May-25 12:01N 46°11' W 123°52'0 0.0
2017-May-25 11:30N 46°11' W 123°52'0 0.0
2017-May-25 11:01N 46°11' W 123°52'0 0.0
2017-May-25 10:31N 46°11' W 123°52'0 0.0
2017-May-25 10:00N 46°11' W 123°52'0 0.0
2017-May-25 09:31N 46°11' W 123°52'0 0.0
2017-May-25 09:01N 46°11' W 123°52'0 0.0
2017-May-25 08:31N 46°11' W 123°52'0 0.0
2017-May-25 08:01N 46°11' W 123°52'0 0.0
2017-May-25 07:31N 46°11' W 123°52'0 0.0
2017-May-25 07:01N 46°11' W 123°52'0 0.0
2017-May-25 06:30N 46°11' W 123°52'0 0.0
2017-May-25 06:01N 46°11' W 123°52'0 0.0
2017-May-25 05:31N 46°11' W 123°52'0 0.0
2017-May-25 05:00N 46°11' W 123°52'0 0.0
2017-May-25 04:30N 46°11' W 123°52'0 0.0
2017-May-25 04:01N 46°11' W 123°52'0 0.0
2017-May-25 03:30N 46°11' W 123°52'0 0.0
2017-May-25 03:01N 46°11' W 123°52'0 0.0
2017-May-25 02:30N 46°11' W 123°52'0 0.0
2017-May-25 02:00N 46°11' W 123°52'0 0.0
2017-May-25 01:31N 46°11' W 123°52'0 0.0
2017-May-25 01:00N 46°11' W 123°52'0 0.0
2017-May-25 00:31N 46°11' W 123°52'0 0.0
2017-May-25 00:01N 46°11' W 123°52'0 0.0
2017-May-24 23:31N 46°11' W 123°52'0 0.0
2017-May-24 23:01N 46°11' W 123°52'0 0.0
2017-May-24 22:31N 46°11' W 123°52'0 0.0
2017-May-24 22:01N 46°11' W 123°52'0 0.0
2017-May-24 21:30N 46°11' W 123°52'0 0.0
2017-May-24 21:00N 46°11' W 123°52'0 0.0
2017-May-24 20:30N 46°11' W 123°52'0 0.0
2017-May-24 20:01N 46°11' W 123°52'2 4.5
2017-May-24 19:31N 46°12' W 123°55'5 9.3
2017-May-24 19:01N 46°15' W 123°60'4 8.9
2017-May-24 18:31N 46°15' W 124°06'4 8.1
2017-May-24 18:01N 46°18' W 124°10'4 8.5
2017-May-24 17:30N 46°21' W 124°15'4 8.1
2017-May-24 17:00N 46°24' W 124°19'4 7.8
2017-May-24 16:30N 46°26' W 124°23'4 7.9
2017-May-24 16:00N 46°29' W 124°27'4 7.9
2017-May-24 15:30N 46°32' W 124°32'4 8.0
2017-May-24 15:00N 46°35' W 124°36'5 4.8
2017-May-24 14:00N 46°38' W 124°41'2 3.8
2017-May-24 13:30N 46°39' W 124°43'2 4.9
2017-May-24 13:00N 46°37' W 124°41'1 2.1
2017-May-24 12:30N 46°36' W 124°40'3 6.6
2017-May-24 12:00N 46°39' W 124°43'2 4.4
2017-May-24 11:30N 46°39' W 124°46'1 1.9
2017-May-24 11:00N 46°38' W 124°47'1 2.1
2017-May-24 10:31N 46°37' W 124°47'1 1.9
2017-May-24 10:00N 46°36' W 124°47'1 1.8
2017-May-24 09:31N 46°36' W 124°47'1 1.7
2017-May-24 09:00N 46°35' W 124°47'1 1.7
2017-May-24 08:31N 46°34' W 124°47'1 1.7
2017-May-24 08:00N 46°33' W 124°46'1 1.6
2017-May-24 07:30N 46°32' W 124°46'1 2.5
2017-May-24 07:00N 46°33' W 124°45'1 1.5
2017-May-24 06:30N 46°33' W 124°44'1 1.7
2017-May-24 06:00N 46°33' W 124°43'1 1.7
2017-May-24 05:30N 46°32' W 124°42'1 1.6
2017-May-24 05:00N 46°32' W 124°41'1 1.6
2017-May-24 04:30N 46°31' W 124°40'1 1.5
2017-May-24 04:00N 46°31' W 124°39'1 1.4
2017-May-24 03:30N 46°31' W 124°38'1 2.7
2017-May-24 03:00N 46°32' W 124°38'1 2.3
2017-May-24 02:30N 46°33' W 124°38'2 3.1
2017-May-24 02:00N 46°35' W 124°38'1 2.9
2017-May-24 01:30N 46°36' W 124°39'1 2.9
2017-May-24 01:00N 46°37' W 124°41'2 3.2
2017-May-24 00:31N 46°38' W 124°42'0 0.2
2017-May-24 00:00N 46°38' W 124°42'2 3.5
2017-May-23 23:30N 46°36' W 124°41'1 1.6
2017-May-23 23:00N 46°37' W 124°42'1 1.3
2017-May-23 22:30N 46°36' W 124°42'1 1.7
2017-May-23 22:01N 46°36' W 124°41'1 1.8
2017-May-23 21:30N 46°35' W 124°41'1 1.8
2017-May-23 21:01N 46°34' W 124°41'1 2.1
2017-May-23 20:30N 46°33' W 124°39'1 2.9
2017-May-23 20:01N 46°35' W 124°38'1 3.0
2017-May-23 19:30N 46°36' W 124°38'1 2.9
2017-May-23 19:00N 46°37' W 124°40'1 3.0
2017-May-23 18:30N 46°38' W 124°42'2 3.4
2017-May-23 18:00N 46°38' W 124°44'2 3.6
2017-May-23 17:30N 46°38' W 124°42'2 4.5
2017-May-23 17:00N 46°37' W 124°39'2 3.9
2017-May-23 16:30N 46°35' W 124°38'2 4.7
2017-May-23 16:00N 46°32' W 124°37'1 1.6
2017-May-23 15:30N 46°33' W 124°36'1 2.3
2017-May-23 15:00N 46°32' W 124°35'3 2.8
2017-May-23 14:00N 46°30' W 124°32'1 2.7
2017-May-23 13:30N 46°29' W 124°32'1 2.4
2017-May-23 13:00N 46°28' W 124°33'1 1.1
2017-May-23 12:30N 46°27' W 124°33'3 5.0
2017-May-23 12:00N 46°25' W 124°34'1 2.1
2017-May-23 11:30N 46°24' W 124°35'1 1.9
2017-May-23 11:00N 46°24' W 124°36'2 3.8
2017-May-23 10:30N 46°25' W 124°39'2 4.3
2017-May-23 10:00N 46°26' W 124°42'1 1.2
2017-May-23 09:30N 46°25' W 124°42'1 1.1
2017-May-23 09:00N 46°25' W 124°42'1 1.4
2017-May-23 08:30N 46°24' W 124°42'1 1.4
2017-May-23 08:00N 46°23' W 124°43'1 1.4
2017-May-23 07:31N 46°22' W 124°43'1 1.8
2017-May-23 07:00N 46°22' W 124°42'1 2.6
2017-May-23 06:30N 46°23' W 124°41'1 2.4
2017-May-23 06:00N 46°24' W 124°40'1 2.5
2017-May-23 05:30N 46°24' W 124°38'1 2.6
2017-May-23 05:00N 46°25' W 124°37'1 2.6
2017-May-23 04:30N 46°26' W 124°36'1 2.5
2017-May-23 04:00N 46°27' W 124°35'1 1.9
2017-May-23 03:30N 46°27' W 124°33'1 2.6
2017-May-23 03:00N 46°25' W 124°34'1 2.6
2017-May-23 02:30N 46°24' W 124°35'1 2.6
2017-May-23 02:00N 46°23' W 124°36'1 1.8
2017-May-23 01:30N 46°22' W 124°36'5 9.1
2017-May-23 01:00N 46°26' W 124°33'4 7.8
2017-May-23 00:30N 46°30' W 124°31'1 1.1
2017-May-23 00:00N 46°30' W 124°32'1 2.0
2017-May-22 23:30N 46°29' W 124°32'1 2.7
2017-May-22 23:00N 46°28' W 124°33'1 2.9
2017-May-22 22:30N 46°26' W 124°34'1 1.1
2017-May-22 22:00N 46°27' W 124°33'2 3.2
2017-May-22 21:30N 46°28' W 124°33'2 3.1
2017-May-22 21:00N 46°30' W 124°31'2 3.0
2017-May-22 20:30N 46°31' W 124°32'1 2.6
2017-May-22 20:00N 46°32' W 124°32'0 0.1
2017-May-22 19:30N 46°32' W 124°32'1 1.3
2017-May-22 19:00N 46°32' W 124°32'2 3.7
2017-May-22 18:30N 46°30' W 124°33'2 4.5
2017-May-22 18:00N 46°28' W 124°32'2 3.8
2017-May-22 17:30N 46°27' W 124°33'1 1.6
2017-May-22 17:00N 46°27' W 124°33'3 5.3
2017-May-22 16:30N 46°30' W 124°32'2 3.6
2017-May-22 16:00N 46°32' W 124°32'4 7.0
2017-May-22 15:30N 46°34' W 124°36'3 5.8
2017-May-22 15:00N 46°32' W 124°33'2 1.6
2017-May-22 14:00N 46°30' W 124°32'2 3.0
2017-May-22 13:30N 46°29' W 124°32'0 0.7
2017-May-22 13:01N 46°28' W 124°32'4 8.7
2017-May-22 12:30N 46°33' W 124°32'2 4.6
2017-May-22 12:00N 46°34' W 124°35'2 3.1
2017-May-22 11:30N 46°32' W 124°36'2 3.1
2017-May-22 11:00N 46°33' W 124°34'2 3.0
2017-May-22 10:29N 46°34' W 124°33'1 2.6
2017-May-22 10:00N 46°33' W 124°32'1 1.3
2017-May-22 09:30N 46°33' W 124°31'2 4.1
2017-May-22 09:00N 46°33' W 124°34'2 4.0
2017-May-22 08:30N 46°34' W 124°37'2 3.6
2017-May-22 08:00N 46°34' W 124°40'2 4.0
2017-May-22 07:30N 46°35' W 124°42'2 4.3
2017-May-22 07:00N 46°36' W 124°44'2 4.7
2017-May-22 06:30N 46°38' W 124°46'3 5.2
2017-May-22 06:00N 46°41' W 124°47'3 5.1
2017-May-22 05:30N 46°43' W 124°49'3 5.0
2017-May-22 05:00N 46°45' W 124°50'2 5.0
2017-May-22 04:30N 46°47' W 124°52'3 6.0
2017-May-22 04:00N 46°50' W 124°55'3 5.8
2017-May-22 03:30N 46°51' W 124°59'2 3.9
2017-May-22 02:59N 46°53' W 125°00'1 1.1
2017-May-22 02:22N 46°53' W 124°59'2 3.8
2017-May-22 01:58N 46°53' W 125°01'1 2.4
2017-May-22 01:28N 46°55' W 125°02'2 4.3
2017-May-22 01:00N 46°56' W 125°01'1 1.9
2017-May-22 00:30N 46°56' W 125°01'2 4.8
2017-May-22 00:00N 46°54' W 125°04'2 4.5
2017-May-21 23:30N 46°56' W 125°02'3 6.4
2017-May-21 23:00N 46°59' W 125°00'3 6.3
2017-May-21 22:30N 47°02' W 124°60'4 7.8
2017-May-21 22:00N 47°05' W 124°57'5 7.5
2017-May-21 21:24N 47°09' W 124°54'3 7.6
2017-May-21 20:58N 47°12' W 124°52'5 7.6
2017-May-21 20:15N 47°17' W 124°49'2 7.6
2017-May-21 20:00N 47°19' W 124°48'4 7.4
2017-May-21 19:30N 47°22' W 124°45'3 6.0
2017-May-21 18:56N 47°25' W 124°48'3 5.6
2017-May-21 18:26N 47°22' W 124°47'3 7.2
2017-May-21 18:00N 47°20' W 124°51'4 7.1
2017-May-21 17:28N 47°17' W 124°54'2 4.7
2017-May-21 17:00N 47°15' W 124°54'2 4.9
2017-May-21 16:30N 47°13' W 124°56'3 6.0
2017-May-21 15:59N 47°11' W 124°59'3 5.6
2017-May-21 15:30N 47°08' W 125°00'3 5.3
2017-May-21 14:58N 47°05' W 124°59'5 5.4
2017-May-21 14:00N 47°00' W 124°60'3 5.9
2017-May-21 13:30N 46°58' W 125°02'2 3.9
2017-May-21 13:00N 46°56' W 125°02'2 3.5
2017-May-21 12:30N 46°57' W 125°00'1 1.2
2017-May-21 12:00N 46°56' W 124°60'2 3.1
2017-May-21 11:29N 46°55' W 124°59'2 3.2
2017-May-21 11:00N 46°53' W 124°58'2 3.2
2017-May-21 10:30N 46°52' W 124°57'1 3.0
2017-May-21 10:00N 46°50' W 124°56'1 2.7
2017-May-21 09:30N 46°49' W 124°55'1 2.7
2017-May-21 09:00N 46°48' W 124°54'1 2.7
2017-May-21 08:30N 46°47' W 124°53'1 2.7
2017-May-21 08:00N 46°46' W 124°52'1 2.8
2017-May-21 07:30N 46°44' W 124°51'2 3.0
2017-May-21 07:00N 46°43' W 124°50'1 2.7
2017-May-21 06:30N 46°42' W 124°50'1 2.7
2017-May-21 06:00N 46°41' W 124°49'1 2.5
2017-May-21 05:30N 46°40' W 124°48'1 2.6
2017-May-21 05:00N 46°38' W 124°47'1 2.8
2017-May-21 04:30N 46°37' W 124°46'2 4.2
2017-May-21 04:00N 46°36' W 124°44'3 5.9
2017-May-21 03:31N 46°34' W 124°40'4 7.7
2017-May-21 03:00N 46°32' W 124°36'3 7.0
2017-May-21 02:30N 46°29' W 124°32'3 6.5
2017-May-21 02:00N 46°26' W 124°33'3 6.7
2017-May-21 01:30N 46°23' W 124°36'4 8.2
2017-May-21 01:00N 46°19' W 124°38'3 6.1
2017-May-21 00:30N 46°16' W 124°38'4 7.8
2017-May-21 00:00N 46°12' W 124°39'3 6.6
2017-May-20 23:30N 46°14' W 124°35'4 7.8
2017-May-20 23:00N 46°16' W 124°30'4 8.8
2017-May-20 22:30N 46°15' W 124°24'5 9.4
2017-May-20 22:00N 46°14' W 124°17'5 9.6
2017-May-20 21:31N 46°14' W 124°10'510.5
2017-May-20 21:01N 46°15' W 124°02'510.9
2017-May-20 20:31N 46°12' W 123°56'3 6.2
2017-May-20 20:01N 46°11' W 123°52'0 0.0
2017-May-20 19:30N 46°11' W 123°52'0 0.0
2017-May-20 19:00N 46°11' W 123°52'0 0.0
2017-May-20 18:30N 46°11' W 123°52'0 0.0
2017-May-20 18:01N 46°11' W 123°52'0 0.0
2017-May-20 17:30N 46°11' W 123°52'0 0.0
2017-May-20 17:01N 46°11' W 123°52'0 0.0
2017-May-20 16:31N 46°11' W 123°52'0 0.0
2017-May-20 16:00N 46°11' W 123°52'0 0.0
2017-May-20 15:31N 46°11' W 123°52'0 0.0
2017-May-20 15:00N 46°11' W 123°52'0 0.0
2017-May-20 14:30N 46°11' W 123°52'0 0.0
2017-May-20 13:30N 46°11' W 123°52'0 0.0
2017-May-20 13:00N 46°11' W 123°52'0 0.0
2017-May-20 12:30N 46°11' W 123°52'0 0.0
2017-May-20 12:00N 46°11' W 123°52'0 0.0
2017-May-20 11:31N 46°11' W 123°52'0 0.0
2017-May-20 11:01N 46°11' W 123°52'0 0.0
2017-May-20 10:30N 46°11' W 123°52'0 0.0
2017-May-20 10:00N 46°11' W 123°52'0 0.0
2017-May-20 09:31N 46°11' W 123°52'0 0.0
2017-May-20 09:00N 46°11' W 123°52'0 0.0
2017-May-20 08:31N 46°11' W 123°52'0 0.0
2017-May-20 08:00N 46°11' W 123°52'0 0.0
2017-May-20 07:30N 46°11' W 123°52'0 0.0
2017-May-20 07:00N 46°11' W 123°52'0 0.0
2017-May-20 06:31N 46°11' W 123°52'0 0.0
2017-May-20 06:01N 46°11' W 123°52'0 0.0
2017-May-20 05:30N 46°11' W 123°52'0 0.0
2017-May-20 05:01N 46°11' W 123°52'0 0.0
2017-May-20 04:30N 46°11' W 123°52'0 0.0
2017-May-20 04:00N 46°11' W 123°52'0 0.0
2017-May-20 03:30N 46°11' W 123°52'0 0.0
2017-May-20 03:01N 46°11' W 123°52'0 0.0
2017-May-20 02:31N 46°11' W 123°52'0 0.0
2017-May-20 02:01N 46°11' W 123°52'0 0.0
2017-May-20 01:30N 46°11' W 123°52'  
Track history (hours):
 
Tides and Currents Weather Stations Pressure Air Temp Water Temp Dewpoint Dewpoint Depression Visibility Wind Speed Wind Dir Waves Ship Positions

Perseverance

Owner: Cooper, Mark E, Toledo, OR. More information available from US FCC via Universal Licensing System and Coast Guard Vessel Documentation Center.

Last reported at 2017-May-30 01:30 UTC. Time now 2017-May-30 01:29 UTC.
Position N 45°36' W 124°18'.

Type: Fishing. MMSI: 367618000.

Date/timePositionNaut miles runAvg speedWind from/ knotsBaromVisibWave heightAir tempDewpointWater temp
2017-May-30 01:30N 45°36' W 124°18'5 9.4
2017-May-30 01:00N 45°41' W 124°19'5 9.5
2017-May-30 00:31N 45°46' W 124°19'5 9.3
2017-May-30 00:00N 45°50' W 124°19'5 9.0
2017-May-29 23:30N 45°55' W 124°19'5 9.4
2017-May-29 23:00N 45°60' W 124°19'5 9.5
2017-May-29 22:28N 46°04' W 124°22'4 9.6
2017-May-29 22:00N 46°08' W 124°23'5 9.1
2017-May-29 21:30N 46°13' W 124°25'4 7.8
2017-May-29 21:00N 46°17' W 124°26'4 8.6
2017-May-29 20:30N 46°21' W 124°28'5 9.6
2017-May-29 20:00N 46°26' W 124°30'5 9.7
2017-May-29 19:30N 46°30' W 124°32'5 9.5
2017-May-29 19:00N 46°35' W 124°34'5 9.3
2017-May-29 18:30N 46°39' W 124°37'5 9.5
2017-May-29 18:00N 46°43' W 124°39'5 9.4
2017-May-29 17:31N 46°48' W 124°40'5 9.7
2017-May-29 17:00N 46°53' W 124°39'4 7.9
2017-May-29 16:30N 46°57' W 124°39'5 9.0
2017-May-29 16:00N 47°01' W 124°41'16 9.4
2017-May-29 14:19N 47°17' W 124°43'10 2.1
2017-May-29 09:35N 47°25' W 124°51'1 7.7
2017-May-29 09:30N 47°25' W 124°52'5 0.6
2017-May-29 02:11N 47°21' W 124°49'1 2.7
2017-May-29 01:57N 47°21' W 124°49'1 3.0
2017-May-29 01:30N 47°20' W 124°50'7 0.8
2017-May-28 17:39N 47°14' W 124°54'1 3.1
2017-May-28 17:30N 47°14' W 124°55'2 3.6
2017-May-28 16:58N 47°12' W 124°56'2 4.0
2017-May-28 16:25N 47°14' W 124°58'0 0.2
2017-May-28 15:59N 47°14' W 124°58'2 1.1
2017-May-28 13:56N 47°16' W 124°55'0 0.7
2017-May-28 13:29N 47°15' W 124°55'2 3.2
2017-May-28 13:00N 47°14' W 124°54'1 2.9
2017-May-28 12:30N 47°13' W 124°56'2 3.1
2017-May-28 12:00N 47°12' W 124°58'3 4.2
2017-May-28 11:15N 47°14' W 124°54'1 4.4
2017-May-28 11:00N 47°15' W 124°55'2 4.0
2017-May-28 10:29N 47°17' W 124°55'2 4.4
2017-May-28 10:00N 47°18' W 124°58'2 4.6
2017-May-28 09:30N 47°18' W 125°01'2 4.5
2017-May-28 09:00N 47°19' W 125°05'2 4.4
2017-May-28 08:30N 47°20' W 125°08'0 0.2
2017-May-28 08:00N 47°20' W 125°08'1 1.4
2017-May-28 07:30N 47°19' W 125°07'1 2.0
2017-May-28 07:00N 47°19' W 125°06'1 2.0
2017-May-28 06:30N 47°18' W 125°05'1 2.0
2017-May-28 06:00N 47°17' W 125°04'1 2.0
2017-May-28 05:30N 47°16' W 125°03'1 2.0
2017-May-28 05:00N 47°15' W 125°02'1 1.8
2017-May-28 04:30N 47°15' W 125°01'1 2.2
2017-May-28 04:00N 47°15' W 124°59'1 2.3
2017-May-28 03:30N 47°15' W 124°58'1 2.2
2017-May-28 03:00N 47°15' W 124°56'1 2.0
2017-May-28 02:29N 47°14' W 124°55'1 1.9
2017-May-28 02:00N 47°14' W 124°54'1 2.6
2017-May-28 01:30N 47°13' W 124°56'2 3.2
2017-May-28 01:00N 47°13' W 124°58'0 0.2
2017-May-28 00:30N 47°13' W 124°58'0 0.8
2017-May-28 00:00N 47°12' W 124°59'1 1.4
2017-May-27 23:30N 47°12' W 124°59'1 2.0
2017-May-27 23:00N 47°12' W 124°58'2 2.0
2017-May-27 22:10N 47°13' W 124°56'0 2.1
2017-May-27 21:59N 47°13' W 124°55'1 2.1
2017-May-27 21:23N 47°14' W 124°54'1 1.5
2017-May-27 21:00N 47°14' W 124°54'2 3.0
2017-May-27 20:30N 47°13' W 124°56'2 3.2
2017-May-27 20:00N 47°12' W 124°58'2 3.3
2017-May-27 19:30N 47°11' W 124°60'1 1.5
2017-May-27 19:00N 47°11' W 124°59'3 2.4
2017-May-27 17:47N 47°13' W 124°55'1 3.5
2017-May-27 17:30N 47°14' W 124°55'2 3.0
2017-May-27 16:59N 47°14' W 124°57'1 1.3
2017-May-27 16:07N 47°14' W 124°55'0 2.1
2017-May-27 16:00N 47°14' W 124°55'1 2.7
2017-May-27 15:30N 47°13' W 124°57'2 3.2
2017-May-27 15:00N 47°12' W 124°58'1 0.7
2017-May-27 13:45N 47°12' W 124°57'1 5.8
2017-May-27 13:30N 47°13' W 124°55'3 6.0
2017-May-27 13:00N 47°13' W 124°60'2 4.0
2017-May-27 12:30N 47°11' W 124°59'4 7.1
2017-May-27 12:00N 47°08' W 124°60'1 1.6
2017-May-27 11:30N 47°08' W 125°00'1 1.9
2017-May-27 10:59N 47°09' W 125°00'1 2.8
2017-May-27 10:27N 47°08' W 124°59'1 2.8
2017-May-27 09:59N 47°08' W 124°57'1 2.7
2017-May-27 09:30N 47°07' W 124°56'1 2.9
2017-May-27 08:59N 47°05' W 124°55'0 0.6
2017-May-27 08:30N 47°05' W 124°55'2 4.2
2017-May-27 08:00N 47°06' W 124°58'2 4.4
2017-May-27 07:29N 47°08' W 125°00'2 4.4
2017-May-27 07:00N 47°09' W 125°02'2 4.5
2017-May-27 06:30N 47°11' W 125°05'1 1.8
2017-May-27 06:00N 47°10' W 125°05'1 2.7
2017-May-27 05:30N 47°09' W 125°04'2 2.8
2017-May-27 04:57N 47°07' W 125°02'1 2.7
2017-May-27 04:30N 47°07' W 125°01'1 2.5
2017-May-27 04:00N 47°06' W 125°00'1 1.5
2017-May-27 03:30N 47°06' W 124°59'1 2.8
2017-May-27 03:00N 47°07' W 124°59'2 3.7
2017-May-27 02:30N 47°09' W 125°01'3 5.0
2017-May-27 01:59N 47°07' W 124°59'4 8.2
2017-May-27 01:30N 47°03' W 124°60'4 7.5
2017-May-27 01:00N 46°59' W 125°00'4 8.2
2017-May-27 00:30N 46°55' W 124°58'4 7.7
2017-May-27 00:00N 46°52' W 124°55'4 7.6
2017-May-26 23:30N 46°48' W 124°53'2 4.2
2017-May-26 23:00N 46°46' W 124°53'3 6.0
2017-May-26 22:30N 46°49' W 124°54'4 7.0
2017-May-26 22:00N 46°46' W 124°52'4 7.6
2017-May-26 21:30N 46°43' W 124°49'4 8.2
2017-May-26 21:00N 46°40' W 124°44'2 3.2
2017-May-26 20:30N 46°39' W 124°44'4 7.4
2017-May-26 20:00N 46°40' W 124°48'1 2.6
2017-May-26 19:30N 46°40' W 124°50'1 1.1
2017-May-26 19:00N 46°41' W 124°51'1 2.2
2017-May-26 18:31N 46°42' W 124°51'1 2.3
2017-May-26 18:00N 46°43' W 124°52'1 2.2
2017-May-26 17:30N 46°44' W 124°52'1 2.4
2017-May-26 17:00N 46°45' W 124°51'2 3.0
2017-May-26 16:30N 46°46' W 124°52'2 3.4
2017-May-26 15:59N 46°48' W 124°54'2 4.4
2017-May-26 15:30N 46°46' W 124°52'2 4.0
2017-May-26 15:00N 46°48' W 124°53'3 3.0
2017-May-26 14:00N 46°45' W 124°51'3 5.9
2017-May-26 13:30N 46°43' W 124°48'1 3.0
2017-May-26 13:00N 46°41' W 124°48'1 2.8
2017-May-26 12:30N 46°40' W 124°46'1 2.8
2017-May-26 12:00N 46°39' W 124°45'2 3.3
2017-May-26 11:30N 46°40' W 124°47'2 4.5
2017-May-26 11:00N 46°42' W 124°48'1 1.6
2017-May-26 10:30N 46°43' W 124°49'1 2.6
2017-May-26 10:00N 46°42' W 124°47'1 2.5
2017-May-26 09:30N 46°41' W 124°46'1 2.7
2017-May-26 09:00N 46°40' W 124°45'1 2.4
2017-May-26 08:30N 46°39' W 124°43'1 2.3
2017-May-26 08:00N 46°39' W 124°42'1 2.3
2017-May-26 07:30N 46°38' W 124°41'1 2.3
2017-May-26 07:00N 46°37' W 124°40'1 2.4
2017-May-26 06:30N 46°36' W 124°39'0 0.9
2017-May-26 06:00N 46°35' W 124°39'0 0.9
2017-May-26 05:30N 46°36' W 124°39'1 2.4
2017-May-26 05:00N 46°37' W 124°40'1 2.7
2017-May-26 04:30N 46°38' W 124°42'2 3.3
2017-May-26 04:00N 46°39' W 124°44'2 3.1
2017-May-26 03:30N 46°40' W 124°46'2 3.1
2017-May-26 03:00N 46°41' W 124°47'2 3.6
2017-May-26 02:30N 46°42' W 124°48'1 2.9
2017-May-26 02:00N 46°41' W 124°47'3 5.6
2017-May-26 01:30N 46°44' W 124°49'1 1.5
2017-May-26 01:00N 46°44' W 124°50'2 4.6
2017-May-26 00:30N 46°42' W 124°48'3 6.2
2017-May-26 00:00N 46°39' W 124°46'4 7.0
2017-May-25 23:30N 46°38' W 124°41'3 6.6
2017-May-25 23:00N 46°35' W 124°38'3 5.8
2017-May-25 22:30N 46°33' W 124°37'4 8.4
2017-May-25 22:00N 46°29' W 124°34'4 8.2
2017-May-25 21:30N 46°26' W 124°31'4 8.3
2017-May-25 21:00N 46°24' W 124°25'4 8.2
2017-May-25 20:30N 46°22' W 124°20'4 8.4
2017-May-25 20:00N 46°20' W 124°15'4 8.0
2017-May-25 19:31N 46°17' W 124°10'4 8.0
2017-May-25 19:00N 46°15' W 124°05'4 7.1
2017-May-25 18:30N 46°15' W 124°00'4 7.5
2017-May-25 18:01N 46°12' W 123°56'3 6.6
2017-May-25 17:31N 46°11' W 123°52'0 0.1
2017-May-25 17:00N 46°11' W 123°52'0 0.0
2017-May-25 16:30N 46°11' W 123°52'0 0.0
2017-May-25 16:00N 46°11' W 123°52'0 0.0
2017-May-25 15:30N 46°11' W 123°52'0 0.0
2017-May-25 15:00N 46°11' W 123°52'0 0.0
2017-May-25 14:01N 46°11' W 123°52'0 0.0
2017-May-25 13:30N 46°11' W 123°52'0 0.0
2017-May-25 13:00N 46°11' W 123°52'0 0.0
2017-May-25 12:31N 46°11' W 123°52'0 0.0
2017-May-25 12:01N 46°11' W 123°52'0 0.0
2017-May-25 11:30N 46°11' W 123°52'0 0.0
2017-May-25 11:01N 46°11' W 123°52'0 0.0
2017-May-25 10:31N 46°11' W 123°52'0 0.0
2017-May-25 10:00N 46°11' W 123°52'0 0.0
2017-May-25 09:31N 46°11' W 123°52'0 0.0
2017-May-25 09:01N 46°11' W 123°52'0 0.0
2017-May-25 08:31N 46°11' W 123°52'0 0.0
2017-May-25 08:01N 46°11' W 123°52'0 0.0
2017-May-25 07:31N 46°11' W 123°52'0 0.0
2017-May-25 07:01N 46°11' W 123°52'0 0.0
2017-May-25 06:30N 46°11' W 123°52'0 0.0
2017-May-25 06:01N 46°11' W 123°52'0 0.0
2017-May-25 05:31N 46°11' W 123°52'0 0.0
2017-May-25 05:00N 46°11' W 123°52'0 0.0
2017-May-25 04:30N 46°11' W 123°52'0 0.0
2017-May-25 04:01N 46°11' W 123°52'0 0.0
2017-May-25 03:30N 46°11' W 123°52'0 0.0
2017-May-25 03:01N 46°11' W 123°52'0 0.0
2017-May-25 02:30N 46°11' W 123°52'0 0.0
2017-May-25 02:00N 46°11' W 123°52'0 0.0
2017-May-25 01:31N 46°11' W 123°52'0 0.0
2017-May-25 01:00N 46°11' W 123°52'0 0.0
2017-May-25 00:31N 46°11' W 123°52'0 0.0
2017-May-25 00:01N 46°11' W 123°52'0 0.0
2017-May-24 23:31N 46°11' W 123°52'0 0.0
2017-May-24 23:01N 46°11' W 123°52'0 0.0
2017-May-24 22:31N 46°11' W 123°52'0 0.0
2017-May-24 22:01N 46°11' W 123°52'0 0.0
2017-May-24 21:30N 46°11' W 123°52'0 0.0
2017-May-24 21:00N 46°11' W 123°52'0 0.0
2017-May-24 20:30N 46°11' W 123°52'0 0.0
2017-May-24 20:01N 46°11' W 123°52'2 4.5
2017-May-24 19:31N 46°12' W 123°55'5 9.3
2017-May-24 19:01N 46°15' W 123°60'4 8.9
2017-May-24 18:31N 46°15' W 124°06'4 8.1
2017-May-24 18:01N 46°18' W 124°10'4 8.5
2017-May-24 17:30N 46°21' W 124°15'4 8.1
2017-May-24 17:00N 46°24' W 124°19'4 7.8
2017-May-24 16:30N 46°26' W 124°23'4 7.9
2017-May-24 16:00N 46°29' W 124°27'4 7.9
2017-May-24 15:30N 46°32' W 124°32'4 8.0
2017-May-24 15:00N 46°35' W 124°36'5 4.8
2017-May-24 14:00N 46°38' W 124°41'2 3.8
2017-May-24 13:30N 46°39' W 124°43'2 4.9
2017-May-24 13:00N 46°37' W 124°41'1 2.1
2017-May-24 12:30N 46°36' W 124°40'3 6.6
2017-May-24 12:00N 46°39' W 124°43'2 4.4
2017-May-24 11:30N 46°39' W 124°46'1 1.9
2017-May-24 11:00N 46°38' W 124°47'1 2.1
2017-May-24 10:31N 46°37' W 124°47'1 1.9
2017-May-24 10:00N 46°36' W 124°47'1 1.8
2017-May-24 09:31N 46°36' W 124°47'1 1.7
2017-May-24 09:00N 46°35' W 124°47'1 1.7
2017-May-24 08:31N 46°34' W 124°47'1 1.7
2017-May-24 08:00N 46°33' W 124°46'1 1.6
2017-May-24 07:30N 46°32' W 124°46'1 2.5
2017-May-24 07:00N 46°33' W 124°45'1 1.5
2017-May-24 06:30N 46°33' W 124°44'1 1.7
2017-May-24 06:00N 46°33' W 124°43'1 1.7
2017-May-24 05:30N 46°32' W 124°42'1 1.6
2017-May-24 05:00N 46°32' W 124°41'1 1.6
2017-May-24 04:30N 46°31' W 124°40'1 1.5
2017-May-24 04:00N 46°31' W 124°39'1 1.4
2017-May-24 03:30N 46°31' W 124°38'1 2.7
2017-May-24 03:00N 46°32' W 124°38'1 2.3
2017-May-24 02:30N 46°33' W 124°38'2 3.1
2017-May-24 02:00N 46°35' W 124°38'1 2.9
2017-May-24 01:30N 46°36' W 124°39'1 2.9
2017-May-24 01:00N 46°37' W 124°41'2 3.2
2017-May-24 00:31N 46°38' W 124°42'0 0.2
2017-May-24 00:00N 46°38' W 124°42'2 3.5
2017-May-23 23:30N 46°36' W 124°41'1 1.6
2017-May-23 23:00N 46°37' W 124°42'1 1.3
2017-May-23 22:30N 46°36' W 124°42'1 1.7
2017-May-23 22:01N 46°36' W 124°41'1 1.8
2017-May-23 21:30N 46°35' W 124°41'1 1.8
2017-May-23 21:01N 46°34' W 124°41'1 2.1
2017-May-23 20:30N 46°33' W 124°39'1 2.9
2017-May-23 20:01N 46°35' W 124°38'1 3.0
2017-May-23 19:30N 46°36' W 124°38'1 2.9
2017-May-23 19:00N 46°37' W 124°40'1 3.0
2017-May-23 18:30N 46°38' W 124°42'2 3.4
2017-May-23 18:00N 46°38' W 124°44'2 3.6
2017-May-23 17:30N 46°38' W 124°42'2 4.5
2017-May-23 17:00N 46°37' W 124°39'2 3.9
2017-May-23 16:30N 46°35' W 124°38'2 4.7
2017-May-23 16:00N 46°32' W 124°37'1 1.6
2017-May-23 15:30N 46°33' W 124°36'1 2.3
2017-May-23 15:00N 46°32' W 124°35'3 2.8
2017-May-23 14:00N 46°30' W 124°32'1 2.7
2017-May-23 13:30N 46°29' W 124°32'1 2.4
2017-May-23 13:00N 46°28' W 124°33'1 1.1
2017-May-23 12:30N 46°27' W 124°33'3 5.0
2017-May-23 12:00N 46°25' W 124°34'1 2.1
2017-May-23 11:30N 46°24' W 124°35'1 1.9
2017-May-23 11:00N 46°24' W 124°36'2 3.8
2017-May-23 10:30N 46°25' W 124°39'2 4.3
2017-May-23 10:00N 46°26' W 124°42'1 1.2
2017-May-23 09:30N 46°25' W 124°42'1 1.1
2017-May-23 09:00N 46°25' W 124°42'1 1.4
2017-May-23 08:30N 46°24' W 124°42'1 1.4
2017-May-23 08:00N 46°23' W 124°43'1 1.4
2017-May-23 07:31N 46°22' W 124°43'1 1.8
2017-May-23 07:00N 46°22' W 124°42'1 2.6
2017-May-23 06:30N 46°23' W 124°41'1 2.4
2017-May-23 06:00N 46°24' W 124°40'1 2.5
2017-May-23 05:30N 46°24' W 124°38'1 2.6
2017-May-23 05:00N 46°25' W 124°37'1 2.6
2017-May-23 04:30N 46°26' W 124°36'1 2.5
2017-May-23 04:00N 46°27' W 124°35'1 1.9
2017-May-23 03:30N 46°27' W 124°33'1 2.6
2017-May-23 03:00N 46°25' W 124°34'1 2.6
2017-May-23 02:30N 46°24' W 124°35'1 2.6
2017-May-23 02:00N 46°23' W 124°36'1 1.8
2017-May-23 01:30N 46°22' W 124°36'5 9.1
2017-May-23 01:00N 46°26' W 124°33'4 7.8
2017-May-23 00:30N 46°30' W 124°31'1 1.1
2017-May-23 00:00N 46°30' W 124°32'1 2.0
2017-May-22 23:30N 46°29' W 124°32'1 2.7
2017-May-22 23:00N 46°28' W 124°33'1 2.9
2017-May-22 22:30N 46°26' W 124°34'1 1.1
2017-May-22 22:00N 46°27' W 124°33'2 3.2
2017-May-22 21:30N 46°28' W 124°33'2 3.1
2017-May-22 21:00N 46°30' W 124°31'2 3.0
2017-May-22 20:30N 46°31' W 124°32'1 2.6
2017-May-22 20:00N 46°32' W 124°32'0 0.1
2017-May-22 19:30N 46°32' W 124°32'1 1.3
2017-May-22 19:00N 46°32' W 124°32'2 3.7
2017-May-22 18:30N 46°30' W 124°33'2 4.5
2017-May-22 18:00N 46°28' W 124°32'2 3.8
2017-May-22 17:30N 46°27' W 124°33'1 1.6
2017-May-22 17:00N 46°27' W 124°33'3 5.3
2017-May-22 16:30N 46°30' W 124°32'2 3.6
2017-May-22 16:00N 46°32' W 124°32'4 7.0
2017-May-22 15:30N 46°34' W 124°36'3 5.8
2017-May-22 15:00N 46°32' W 124°33'2 1.6
2017-May-22 14:00N 46°30' W 124°32'2 3.0
2017-May-22 13:30N 46°29' W 124°32'0 0.7
2017-May-22 13:01N 46°28' W 124°32'4 8.7
2017-May-22 12:30N 46°33' W 124°32'2 4.6
2017-May-22 12:00N 46°34' W 124°35'2 3.1
2017-May-22 11:30N 46°32' W 124°36'2 3.1
2017-May-22 11:00N 46°33' W 124°34'2 3.0
2017-May-22 10:29N 46°34' W 124°33'1 2.6
2017-May-22 10:00N 46°33' W 124°32'1 1.3
2017-May-22 09:30N 46°33' W 124°31'2 4.1
2017-May-22 09:00N 46°33' W 124°34'2 4.0
2017-May-22 08:30N 46°34' W 124°37'2 3.6
2017-May-22 08:00N 46°34' W 124°40'2 4.0
2017-May-22 07:30N 46°35' W 124°42'2 4.3
2017-May-22 07:00N 46°36' W 124°44'2 4.7
2017-May-22 06:30N 46°38' W 124°46'3 5.2
2017-May-22 06:00N 46°41' W 124°47'3 5.1
2017-May-22 05:30N 46°43' W 124°49'3 5.0
2017-May-22 05:00N 46°45' W 124°50'2 5.0
2017-May-22 04:30N 46°47' W 124°52'3 6.0
2017-May-22 04:00N 46°50' W 124°55'3 5.8
2017-May-22 03:30N 46°51' W 124°59'2 3.9
2017-May-22 02:59N 46°53' W 125°00'1 1.1
2017-May-22 02:22N 46°53' W 124°59'2 3.8
2017-May-22 01:58N 46°53' W 125°01'1 2.4
2017-May-22 01:28N 46°55' W 125°02'2 4.3
2017-May-22 01:00N 46°56' W 125°01'1 1.9
2017-May-22 00:30N 46°56' W 125°01'2 4.8
2017-May-22 00:00N 46°54' W 125°04'2 4.5
2017-May-21 23:30N 46°56' W 125°02'3 6.4
2017-May-21 23:00N 46°59' W 125°00'3 6.3
2017-May-21 22:30N 47°02' W 124°60'4 7.8
2017-May-21 22:00N 47°05' W 124°57'5 7.5
2017-May-21 21:24N 47°09' W 124°54'3 7.6
2017-May-21 20:58N 47°12' W 124°52'5 7.6
2017-May-21 20:15N 47°17' W 124°49'2 7.6
2017-May-21 20:00N 47°19' W 124°48'4 7.4
2017-May-21 19:30N 47°22' W 124°45'3 6.0
2017-May-21 18:56N 47°25' W 124°48'3 5.6
2017-May-21 18:26N 47°22' W 124°47'3 7.2
2017-May-21 18:00N 47°20' W 124°51'4 7.1
2017-May-21 17:28N 47°17' W 124°54'2 4.7
2017-May-21 17:00N 47°15' W 124°54'2 4.9
2017-May-21 16:30N 47°13' W 124°56'3 6.0
2017-May-21 15:59N 47°11' W 124°59'3 5.6
2017-May-21 15:30N 47°08' W 125°00'3 5.3
2017-May-21 14:58N 47°05' W 124°59'5 5.4
2017-May-21 14:00N 47°00' W 124°60'3 5.9
2017-May-21 13:30N 46°58' W 125°02'2 3.9
2017-May-21 13:00N 46°56' W 125°02'2 3.5
2017-May-21 12:30N 46°57' W 125°00'1 1.2
2017-May-21 12:00N 46°56' W 124°60'2 3.1
2017-May-21 11:29N 46°55' W 124°59'2 3.2
2017-May-21 11:00N 46°53' W 124°58'2 3.2
2017-May-21 10:30N 46°52' W 124°57'1 3.0
2017-May-21 10:00N 46°50' W 124°56'1 2.7
2017-May-21 09:30N 46°49' W 124°55'1 2.7
2017-May-21 09:00N 46°48' W 124°54'1 2.7
2017-May-21 08:30N 46°47' W 124°53'1 2.7
2017-May-21 08:00N 46°46' W 124°52'1 2.8
2017-May-21 07:30N 46°44' W 124°51'2 3.0
2017-May-21 07:00N 46°43' W 124°50'1 2.7
2017-May-21 06:30N 46°42' W 124°50'1 2.7
2017-May-21 06:00N 46°41' W 124°49'1 2.5
2017-May-21 05:30N 46°40' W 124°48'1 2.6
2017-May-21 05:00N 46°38' W 124°47'1 2.8
2017-May-21 04:30N 46°37' W 124°46'2 4.2
2017-May-21 04:00N 46°36' W 124°44'3 5.9
2017-May-21 03:31N 46°34' W 124°40'4 7.7
2017-May-21 03:00N 46°32' W 124°36'3 7.0
2017-May-21 02:30N 46°29' W 124°32'3 6.5
2017-May-21 02:00N 46°26' W 124°33'3 6.7
2017-May-21 01:30N 46°23' W 124°36'4 8.2
2017-May-21 01:00N 46°19' W 124°38'3 6.1
2017-May-21 00:30N 46°16' W 124°38'4 7.8
2017-May-21 00:00N 46°12' W 124°39'3 6.6
2017-May-20 23:30N 46°14' W 124°35'4 7.8
2017-May-20 23:00N 46°16' W 124°30'4 8.8
2017-May-20 22:30N 46°15' W 124°24'5 9.4
2017-May-20 22:00N 46°14' W 124°17'5 9.6
2017-May-20 21:31N 46°14' W 124°10'510.5
2017-May-20 21:01N 46°15' W 124°02'510.9
2017-May-20 20:31N 46°12' W 123°56'3 6.2
2017-May-20 20:01N 46°11' W 123°52'0 0.0
2017-May-20 19:30N 46°11' W 123°52'0 0.0
2017-May-20 19:00N 46°11' W 123°52'0 0.0
2017-May-20 18:30N 46°11' W 123°52'0 0.0
2017-May-20 18:01N 46°11' W 123°52'0 0.0
2017-May-20 17:30N 46°11' W 123°52'0 0.0
2017-May-20 17:01N 46°11' W 123°52'0 0.0
2017-May-20 16:31N 46°11' W 123°52'0 0.0
2017-May-20 16:00N 46°11' W 123°52'0 0.0
2017-May-20 15:31N 46°11' W 123°52'0 0.0
2017-May-20 15:00N 46°11' W 123°52'0 0.0
2017-May-20 14:30N 46°11' W 123°52'0 0.0
2017-May-20 13:30N 46°11' W 123°52'0 0.0
2017-May-20 13:00N 46°11' W 123°52'0 0.0
2017-May-20 12:30N 46°11' W 123°52'0 0.0
2017-May-20 12:00N 46°11' W 123°52'0 0.0
2017-May-20 11:31N 46°11' W 123°52'0 0.0
2017-May-20 11:01N 46°11' W 123°52'0 0.0
2017-May-20 10:30N 46°11' W 123°52'0 0.0
2017-May-20 10:00N 46°11' W 123°52'0 0.0
2017-May-20 09:31N 46°11' W 123°52'0 0.0
2017-May-20 09:00N 46°11' W 123°52'0 0.0
2017-May-20 08:31N 46°11' W 123°52'0 0.0
2017-May-20 08:00N 46°11' W 123°52'0 0.0
2017-May-20 07:30N 46°11' W 123°52'0 0.0
2017-May-20 07:00N 46°11' W 123°52'0 0.0
2017-May-20 06:31N 46°11' W 123°52'0 0.0
2017-May-20 06:01N 46°11' W 123°52'0 0.0
2017-May-20 05:30N 46°11' W 123°52'0 0.0
2017-May-20 05:01N 46°11' W 123°52'0 0.0
2017-May-20 04:30N 46°11' W 123°52'0 0.0
2017-May-20 04:00N 46°11' W 123°52'0 0.0
2017-May-20 03:30N 46°11' W 123°52'0 0.0
2017-May-20 03:01N 46°11' W 123°52'0 0.0
2017-May-20 02:31N 46°11' W 123°52'0 0.0
2017-May-20 02:01N 46°11' W 123°52'0 0.0
2017-May-20 01:30N 46°11' W 123°52'  

Dump ship's entire track history